Tiempo atmosférico en la estación meteorológica de Bardenas Reales, Base Aérea, Navarra (295 m.)



Fecha
DESCASC
Temp. máxima en grados centígrados (hora)
DESCASC
Temp. mínima en grados centígrados (hora)
DESCASC
Temp. media en grados centígrados
DESCASC
Racha de viento máxima en m/sg (hora)
DESCASC
Velocidad máxima media en intervalos de 10 minutos(hora)
DESCASC
Precipitaciones diarias en mm
DESCASC
Precipitaciones de 00:00 a 06:00 en mm
DESCASC
Precipitaciones de 06:00 a 12:00 en mm
DESCASC
Precipitaciones de 12:00 a 18:00 en mm
DESCASC
Precipitaciones de 18:00 a 24:00 en mm
DESCASC
20-09-2018 32.7 (17:10) 16.7 (08:20) 24.7 8.61 (14:50) 5.28 (14:50) 0 0 0 0 0
19-09-2018 32.1 (19:00) 16.6 (08:00) 24.3 7.22 (00:10) 5 (00:10) 0 0 0 0 0
18-09-2018 29.8 (15:30) 18.1 (07:40) 23.9 11.11 (01:50) 7.78 (02:00) 0 0 0 0 0
17-09-2018 31.3 (17:00) 18.7 (08:20) 25 11.39 (18:50) 8.61 (18:40) 0 0 0 0 0
16-09-2018 31.4 (17:30) 16 (00:00) 23.7 7.22 (23:40) 6.11 (23:59) 0 0 0 0 0
15-09-2018 27 (16:00) 14.5 (00:00) 20.8 9.44 (01:20) 6.67 (01:20) 0 0 0 0 0
14-09-2018 29.8 (16:50) 15.8 (00:00) 22.8 10 (04:30) 6.94 (04:30) 0 0 0 0 0
13-09-2018 26.6 (16:00) 17.5 (00:00) 22.1 12.22 (15:20) 8.61 (18:10) 0 0 0 0 0
12-09-2018 27.8 (18:50) 18.2 (00:00) 23 7.5 (05:30) 6.11 (05:30) 2.4 0.2 2.2 0 0
11-09-2018 28.8 (16:40) 15.1 (00:00) 21.9 8.89 (16:40) 6.11 (16:40) 0 0 0 0 0
10-09-2018 28.6 (18:10) 17.2 (00:00) 22.9 -- (--) -- (--) 0 0 0 0 0
09-09-2018 27.9 (16:30) 17.5 (00:00) 22.7 10.56 (23:50) 8.33 (23:30) 6.4 6.4 0 0 0
08-09-2018 30.1 (17:50) 15.3 (00:00) 22.7 15.28 (21:30) 10.28 (21:30) 4.6 0 0 0 4.6
07-09-2018 27.6 (17:10) 15.9 (00:00) 21.8 11.39 (03:10) 8.61 (03:20) 0 0 0 0 0
06-09-2018 26.3 (16:30) 16.4 (00:00) 21.3 12.5 (18:40) 9.44 (18:40) 0 0 0 0 0
05-09-2018 29.5 (16:40) 18 (00:00) 23.8 16.94 (18:10) 11.11 (18:20) 5 0 0 0.8 4.2
04-09-2018 31.6 (16:50) 16.6 (00:00) 24.1 13.61 (01:00) 8.61 (23:00) 0 0 0 0 0
03-09-2018 31.2 (17:00) 15.3 (00:00) 23.3 8.61 (23:59) 5.83 (20:10) 0 0 0 0 0
02-09-2018 33.4 (18:00) 14.5 (00:00) 24 6.39 (18:00) 3.33 (17:30) 0 0 0 0 0
01-09-2018 31.7 (16:50) 17.1 (00:00) 24.4 12.22 (01:40) 8.61 (01:30) 0 0 0 0 0
31-08-2018 28.2 (15:40) 16.8 (00:00) 22.5 15 (18:10) 10.83 (18:10) 0 0 0 0 0
30-08-2018 30.3 (17:40) 16.9 (00:00) 23.6 12.5 (00:40) 9.17 (00:30) 0 0 0 0 0
29-08-2018 30.3 (16:20) 17.7 (00:00) 24 15.28 (18:00) 10.28 (18:00) 0 0 0 0 0
28-08-2018 33.9 (17:00) 21.4 (00:00) 27.7 16.11 (21:50) 11.39 (22:20) 0 0 0 0 0
27-08-2018 34.2 (18:40) 15.8 (00:00) 25 6.11 (17:40) 3.33 (17:40) 0 0 0 0 0
26-08-2018 30.2 (17:50) 13.9 (00:00) 22.1 13.06 (00:10) 8.33 (00:10) 0 0 0 0 0
25-08-2018 24.9 (16:40) 14.4 (00:00) 19.6 16.39 (15:20) 10.28 (18:00) 0 0 0 0 0
24-08-2018 27.3 (15:50) 17.1 (00:00) 22.2 14.44 (15:20) 10.28 (17:10) 0.4 0 0 0.4 0

Gráficas

Temp. máximas Temp. mínimas Temp. medias Precipitaciones Rachas de viento máximas Velocidades máximas media en intervalos de 10 minutos

Datos horarios

Fecha y hora oficial Temperatura (ºC) Velocidad del viento (km/h) Dirección del viento Racha (km/h) Dirección de racha Precipitación (mm) Presión (hPa) Tendencia (hPa) Humedad (%)
2018-09-22 23:00:00 23.5 10 Oeste 19 Noroeste 0 988.6 2 53
2018-09-22 22:00:00 25.7 10 Noroeste 17 Noroeste 0 988 1.8 47
2018-09-22 21:00:00 26.5 9 Noroeste 22 Norte 0 987.5 1.4 42
2018-09-22 20:00:00 29.2 15 Norte 27 Noroeste 0 986.6 0.2 32
2018-09-22 19:00:00 31 22 Noroeste 33 Noroeste 0 986.2 -0.7 30
2018-09-22 18:00:00 31.9 19 Noroeste 32 Noroeste 0 986.1 -1.5 28
2018-09-22 17:00:00 31.6 20 Noroeste 31 Noroeste 0 986.4 -1.8 27
2018-09-22 16:00:00 30.7 15 Noroeste 27 Noroeste 0 986.9 -1.8 30
2018-09-22 15:00:00 29.5 12 Oeste 21 Oeste 0 987.6 -1.3 31
2018-09-22 14:00:00 27.2 9 Oeste 20 Oeste 0 988.2 -0.6 42
2018-09-22 13:00:00 25.5 6 Oeste 14 Oeste 0 988.7 0.1 50
2018-09-22 12:00:00 23.1 9 Oeste 18 Oeste 0 988.9 0.6 59
2018-09-22 11:00:00 21.4 10 Oeste 20 Noroeste 0 988.8 0.8 65
2018-09-22 10:00:00 18.8 9 Oeste 16 Oeste 0 988.6 0.9 75
2018-09-22 09:00:00 16.2 5 Oeste 8 Oeste 0 988.3 0.6 84
2018-09-22 08:00:00 15.4 6 Sudoeste 10 Sudoeste 0 988 0.4 86
2018-09-22 07:00:00 16.2 6 Oeste 15 Sudoeste 0 987.7 -0.2 83
2018-09-22 06:00:00 16.6 9 Oeste 13 Oeste 0 987.7 -0.3 82
2018-09-22 05:00:00 17.3 6 Oeste 12 Oeste 0 987.6 -0.2 80
2018-09-22 04:00:00 17.9 7 Oeste 22 Oeste 0 987.9 0 78
2018-09-22 03:00:00 18.4 19 Noroeste 29 Oeste 0 988 0.3 77
2018-09-22 02:00:00 19.1 21 Oeste 32 Noroeste 0 987.8 0.6 74
2018-09-22 01:00:00 19.4 24 Noroeste 32 Noroeste 0 987.9 1.2 72
2018-09-22 00:00:00 19.9 20 Oeste 33 Noroeste 0 987.7 1.7 71
2018-09-21 23:00:00 20.7 24 Oeste 33 Oeste 0 987.2 2.3 67
2018-09-21 22:00:00 21.3 12 Oeste 27 Noroeste 0 986.7 2.5 57
2018-09-21 21:00:00 22.9 15 Noroeste 34 Noroeste 0 986 2.2 48
2018-09-21 20:00:00 25.4 24 Noroeste 37 Noroeste 0 984.9 1.5 36
2018-09-21 19:00:00 26.9 27 Noroeste 39 Noroeste 0 984.2 0.7 34
2018-09-21 18:00:00 28.6 27 Noroeste 39 Noroeste 0 983.8 0.1 31
2018-09-21 17:00:00 29.6 23 Noroeste 39 Noroeste 0 983.4 -0.7 29
2018-09-21 16:00:00 28.9 22 Noroeste 36 Noroeste 0 983.5 -1 32
2018-09-21 15:00:00 29.3 21 Noroeste 40 Noroeste 0 983.7 -1.1 32
2018-09-21 14:00:00 29.6 20 Noroeste 31 Noroeste 0 984.1 -0.3 31
2018-09-21 13:00:00 27.8 12 Oeste 21 Noroeste 0 984.5 0.4 46
2018-09-21 12:00:00 25.7 11 Noroeste 24 Noroeste 0 984.8 1.3 55
2018-09-21 11:00:00 23.7 9 Noroeste 15 Oeste 0 984.4 1.5 60
2018-09-21 10:00:00 21 5 Noroeste 7 Noroeste 0 984.1 1.9 69
2018-09-21 09:00:00 18 4 Sur 6 Sudeste 0 983.5 1.6 79
2018-09-21 08:00:00 16.8 5 Oeste 6 Sudeste 0 982.9 1.1 81
2018-09-21 07:00:00 17.5 5 Noroeste 11 Noroeste 0 982.2 0.5 77
2018-09-21 06:00:00 19.1 2 Sudeste 11 Nordeste 0 981.9 0.4 75
2018-09-21 05:00:00 19.8 10 Nordeste 13 Nordeste 0 981.8 0.3 72
2018-09-21 04:00:00 21.8 5 Sudeste 10 Este 0 981.7 0.1 63
2018-09-21 03:00:00 21.6 12 Este 20 Este 0 981.5 0 65
2018-09-21 02:00:00 22.1 10 Este 18 Este 0 981.5 0 61
2018-09-21 01:00:00 23.2 7 Este 20 Este 0 981.6 0 55
2018-09-21 00:00:00 23.6 12 Este 19 Sudeste 0 981.5 0.5 56
2018-09-20 23:00:00 25.1 16 Sudeste 20 Sudeste 0 981.5 0.7 48
2018-09-20 22:00:00 25.5 5 Noroeste 10 Este 0 981.6 0.9 45
2018-09-20 21:00:00 27.3 3 Oeste 7 Sur 0 981 0.1 40
2018-09-20 20:00:00 29.8 7 Sudeste 17 Este 0 980.8 -0.7 33
2018-09-20 19:00:00 31.5 16 Este 23 Este 0 980.7 -1.4 27
2018-09-20 18:00:00 32.3 19 Este 26 Este 0 980.9 -2.1 24
2018-09-20 17:00:00 32.5 17 Este 26 Este 0 981.5 -2.5 29
2018-09-20 16:00:00 32 17 Este 29 Nordeste 0 982.1 -2.7 33
2018-09-20 15:00:00 30.6 16 Este 31 Este 0 983 -2.5 36
2018-09-20 14:00:00 29.2 10 Este 19 Sudeste 0 984 -1.9 44
2018-09-20 13:00:00 27.2 9 Sudeste 18 Sudeste 0 984.8 -1 50
2018-09-20 12:00:00 25.6 6 Sur 12 Sur 0 985.5 -0.3 55
2018-09-20 11:00:00 23.3 2 Sudeste 10 Sur 0 985.9 0.1 64
2018-09-20 10:00:00 20.4 4 Sur 8 Sur 0 985.8 0.2 74
2018-09-20 09:00:00 18 0 Calma 5 Oeste 0 985.8 0.2 78
2018-09-20 08:00:00 17 3 Sur 9 Este 0 985.8 0.3 81
2018-09-20 07:00:00 17.6 5 Este 10 Nordeste 0 985.6 0.1 78
2018-09-20 06:00:00 18 6 Norte 9 Nordeste 0 985.6 -0.1 78
2018-09-20 05:00:00 18.3 6 Noroeste 7 Noroeste 0 985.5 0 77
2018-09-20 04:00:00 18.8 3 Norte 8 Noroeste 0 985.5 0.1 73
2018-09-20 03:00:00 19.7 6 Noroeste 10 Sur 0 985.7 0.4 72
2018-09-20 02:00:00 20.6 9 Sudeste 11 Sudeste 0 985.5 0.4 72
2018-09-20 01:00:00 21.2 4 Sur 8 Sudeste 0 985.4 0.8 63
2018-09-20 00:00:00 22.7 2 Norte 9 Oeste 0 985.3 1.3 58
2018-09-19 23:00:00 23.6 3 Este 7 Norte 0 985.1 1.3 55
2018-09-19 22:00:00 26 0 Calma 10 Sudeste 0 984.6 0.9 49
2018-09-19 21:00:00 26.5 5 Norte 13 Sudoeste 0 984 0.4 47
2018-09-19 20:00:00 30.5 6 Sudoeste 9 Sudoeste 0 983.8 -0.2 33
2018-09-19 19:00:00 32 4 Oeste 8 Noroeste 0 983.7 -0.9 29
2018-09-19 18:00:00 31.4 6 Norte 11 Nordeste 0 983.6 -1.6 30
2018-09-19 17:00:00 31.1 4 Noroeste 13 Oeste 0 984 -1.9 33
2018-09-19 16:00:00 30.8 8 Sudoeste 13 Nordeste 0 984.6 -1.9 35
2018-09-19 15:00:00 29.9 4 Oeste 17 Sur 0 985.2 -1.6 41
2018-09-19 14:00:00 28.1 8 Sur 15 Sudeste 0 985.9 -1 47
2018-09-19 13:00:00 26.7 4 Sudeste 12 Sudeste 0 986.5 0.2 53
2018-09-19 12:00:00 24.8 6 Nordeste 14 Nordeste 0 986.8 1 59
2018-09-19 11:00:00 23.4 4 Este 11 Este 0 986.9 1.8 64
2018-09-19 10:00:00 21 7 Este 12 Este 0 986.3 1.7 68
2018-09-19 09:00:00 18.2 3 Este 4 Este 0 985.8 1.4 77
2018-09-19 08:00:00 16.6 4 Noroeste 5 Nordeste 0 985.1 0.9 81
2018-09-19 07:00:00 17.7 4 Este 12 Este 0 984.6 0.5 78
2018-09-19 06:00:00 18.7 6 Este 12 Este 0 984.4 0.1 76
2018-09-19 05:00:00 18.9 3 Norte 18 Este 0 984.2 0.2 76
2018-09-19 04:00:00 19.8 11 Este 17 Este 0 984.1 0.3 73
2018-09-19 03:00:00 19.6 6 Nordeste 12 Este 0 984.3 0.4 74
2018-09-19 02:00:00 20.4 11 Este 20 Este 0 984 0.4 72
2018-09-19 01:00:00 21.3 17 Este 26 Este 0 983.8 1.1 69
2018-09-19 00:00:00 22.7 18 Este 26 Este 0 983.9 2.4 62
2018-09-18 23:00:00 23.3 16 Este 24 Este 0 983.6 2.7 60
2018-09-18 22:00:00 23.6 2 Sur 8 Sudeste 0 982.7 2.1 56
2018-09-18 21:00:00 25.6 2 Nordeste 5 Sudoeste 0 981.5 1.2 50
2018-09-18 20:00:00 27.8 6 Sudoeste 23 Sudoeste 0 980.9 0.6 42
2018-09-18 19:00:00 28.2 13 Sudoeste 18 Sudoeste 0 980.6 0.1 41
2018-09-18 18:00:00 28.5 0 Calma 12 Este 0 980.3 -0.6 41
2018-09-18 17:00:00 29.1 5 Sudeste 13 Este 0 980.3 -1.1 39
2018-09-18 16:00:00 29.6 6 Noroeste 19 Sudeste 0 980.5 -1.6 37
2018-09-18 15:00:00 29 9 Sudoeste 18 Sudeste 0 980.9 -1.7 39
2018-09-18 14:00:00 28 7 Sudoeste 20 Sudeste 0 981.4 -1.4 44
2018-09-18 13:00:00 26.8 9 Sudeste 22 Este 0 982.1 -0.4 50
2018-09-18 12:00:00 24.7 9 Sudeste 19 Sudeste 0 982.6 0.7 61
2018-09-18 11:00:00 23.1 10 Este 20 Este 0 982.8 1.5 68
2018-09-18 10:00:00 21.4 14 Este 22 Este 0 982.5 1.4 75
2018-09-18 09:00:00 19.3 8 Este 17 Este 0 981.9 0.6 83
2018-09-18 08:00:00 18.2 10 Este 18 Este 0 981.3 0.2 88
2018-09-18 07:00:00 18.4 9 Sudeste 16 Este 0 981.1 -0.3 87
2018-09-18 06:00:00 18.6 9 Este 15 Este 0 981.3 0 86
2018-09-18 05:00:00 19 10 Este 14 Este 0 981.1 0 85
2018-09-18 04:00:00 20 7 Sudeste 26 Este 0 981.4 0.4 81
2018-09-18 03:00:00 20.6 13 Este 32 Este 0 981.3 -0.3 79
2018-09-18 02:00:00 21.3 28 Este 40 Este 0 981.1 -0.3 76
2018-09-18 01:00:00 22 24 Este 32 Este 0 981 -0.2 73
2018-09-18 00:00:00 22.5 19 Este 30 Este 0 981.6 1.2 71
2018-09-17 23:00:00 24.2 18 Este 24 Este 0 981.4 1.5 63
2018-09-17 22:00:00 26.2 18 Este 27 Sudeste 0 981.2 1.9 51
2018-09-17 21:00:00 25.9 19 Este 25 Este 0 980.4 1.2 52
2018-09-17 20:00:00 27.3 14 Este 36 Este 0 979.9 -0.2 44
2018-09-17 19:00:00 29.7 29 Este 41 Este 0 979.3 -1.8 35
2018-09-17 18:00:00 30.7 27 Este 36 Este 0 979.2 -2.8 33
2018-09-17 17:00:00 30.9 21 Este 35 Sudeste 0 980.1 -2.7 32
2018-09-17 16:00:00 30.5 24 Este 35 Este 0 981.1 -2.6 33
2018-09-17 15:00:00 29.6 22 Este 39 Este 0 982 -2.3 38
2018-09-17 14:00:00 28.5 25 Este 37 Este 0 982.8 -1.9 44
2018-09-17 13:00:00 26.9 25 Este 36 Este 0 983.7 -1 52
2018-09-17 12:00:00 24.9 19 Este 32 Este 0 984.3 -0.7 62
2018-09-17 11:00:00 23.5 15 Este 29 Este 0 984.7 -0.1 67
2018-09-17 10:00:00 21.4 21 Este 32 Este 0 984.7 0.1 74
2018-09-17 09:00:00 19.6 13 Este 19 Este 0 985 0.8 85
2018-09-17 08:00:00 18.9 13 Sudeste 19 Sudeste 0 984.8 0.5 86
2018-09-17 07:00:00 19.3 14 Sudeste 34 Sudeste 0 984.6 0.3 83
2018-09-17 06:00:00 20.1 25 Este 32 Este 0 984.2 -0.4 81
2018-09-17 05:00:00 20 21 Este 28 Este 0 984.3 -0.6 80
2018-09-17 04:00:00 20.4 19 Este 27 Este 0 984.3 -0.2 77
2018-09-17 03:00:00 19.7 17 Este 24 Este 0 984.6 0.3 76
2018-09-17 02:00:00 20.3 15 Este 28 Este 0 984.9 0.6 69
2018-09-17 01:00:00 21.5 18 Este 24 Este 0 984.5 0.7 62
2018-09-17 00:00:00 22 22 Este 26 Este 0 984.3 1 61
2018-09-16 23:00:00 22.1 2 Sudeste 9 Nordeste 0 984.3 1 58
2018-09-16 22:00:00 24.4 8 Nordeste 9 Nordeste 0 983.8 0.8 49
2018-09-16 21:00:00 26.1 3 Sudeste 10 Sudoeste 0 983.3 0.4 46
2018-09-16 20:00:00 28.2 10 Sudoeste 22 Sudoeste 0 983.3 -0.1 38
2018-09-16 19:00:00 30.3 5 Este 14 Este 0 983 -0.9 34
2018-09-16 18:00:00 30.9 8 Este 15 Este 0 982.9 -1.6 31
2018-09-16 17:00:00 30.7 8 Nordeste 17 Sudeste 0 983.4 -1.7 33
2018-09-16 16:00:00 30.4 7 Sudeste 18 Sudeste 0 983.9 -1.7 34
2018-09-16 15:00:00 29.1 6 Sudeste 21 Sur 0 984.5 -1.9 38
2018-09-16 14:00:00 27.5 8 Sur 17 Sur 0 985.1 -1.1 47
2018-09-16 13:00:00 26.1 5 Sur 23 Este 0 985.6 -0.8 52
2018-09-16 12:00:00 24.6 8 Este 18 Este 0 986.4 0.3 55
2018-09-16 11:00:00 22.1 13 Este 20 Este 0 986.2 0.5 69
2018-09-16 10:00:00 20.3 10 Sudeste 14 Sudeste 0 986.4 1 73
2018-09-16 09:00:00 17.5 8 Sudeste 14 Este 0 986.1 1.2 84
2018-09-16 08:00:00 16.2 7 Este 16 Este 0 985.7 0.9 88
2018-09-16 07:00:00 16.8 12 Este 15 Este 0 985.4 0.2 86
2018-09-16 06:00:00 16.7 8 Este 19 Este 0 984.9 -0.9 86
2018-09-16 05:00:00 17.2 14 Este 18 Este 0 984.8 -1.1 85
2018-09-16 04:00:00 17.9 13 Este 16 Este 0 985.2 -0.7 81
2018-09-16 03:00:00 18.7 11 Este 19 Este 0 985.8 -0.3 76
2018-09-16 02:00:00 19.3 15 Este 20 Este 0 985.9 -0.1 74
2018-09-16 01:00:00 19.7 13 Este 19 Este 0 985.9 0.5 72
2018-09-16 00:00:00 20.4 14 Este 19 Este 0 986.1 1.5 69
2018-09-15 23:00:00 19.6 5 Este 9 Este 0 986 1.8 69
2018-09-15 22:00:00 20.5 3 Sudeste 10 Nordeste 0 985.4 1.4 63
2018-09-15 21:00:00 22.6 9 Norte 10 Norte 0 984.6 0.6 56
2018-09-15 20:00:00 25.3 5 Norte 6 Norte 0 984.2 -0.1 46
2018-09-15 19:00:00 25.7 0 Calma 12 Este 0 984 -0.6 46
2018-09-15 18:00:00 25 9 Este 19 Este 0 984 -1.5 46
2018-09-15 17:00:00 24.6 16 Este 25 Este 0 984.3 -1.9 47
2018-09-15 16:00:00 26 17 Este 27 Este 0 984.6 -1.9 44
2018-09-15 15:00:00 24.2 12 Este 21 Este 0 985.5 -1.6 49
2018-09-15 14:00:00 24.7 8 Sudeste 17 Sudeste 0 986.2 -1.1 46
2018-09-15 13:00:00 22.4 12 Este 19 Sudeste 0 986.5 -0.7 56
2018-09-15 12:00:00 19.8 4 Norte 8 Nordeste 0 987.1 0.2 62
2018-09-15 11:00:00 19 2 Sudeste 6 Sudoeste 0 987.3 0.9 64
2018-09-15 10:00:00 17.4 0 Calma 5 Este 0 987.2 1.3 70
2018-09-15 09:00:00 14.7 4 Nordeste 13 Noroeste 0 986.9 1.2 81
2018-09-15 08:00:00 14.8 7 Noroeste 22 Noroeste 0 986.4 0.7 80
2018-09-15 07:00:00 15.7 16 Noroeste 27 Noroeste 0 985.9 0.1 76
2018-09-15 06:00:00 16.3 15 Noroeste 23 Noroeste 0 985.7 0 74
2018-09-15 05:00:00 16.8 17 Oeste 30 Oeste 0 985.7 0.1 72
2018-09-15 04:00:00 17 15 Oeste 30 Oeste 0 985.8 0.1 72
2018-09-15 03:00:00 17.9 23 Oeste 33 Oeste 0 985.7 0.5 68
2018-09-15 02:00:00 18.1 23 Noroeste 34 Oeste 0 985.6 0.5 70
2018-09-15 01:00:00 18.7 24 Noroeste 31 Noroeste 0 985.7 0.9 69
2018-09-15 00:00:00 19.4 22 Oeste 31 Noroeste 0 985.2 1.3 71
2018-09-14 23:00:00 20.5 20 Noroeste 30 Oeste 0 985.1 2 66
2018-09-14 22:00:00 21.7 16 Noroeste 21 Noroeste 0 984.8 2.2 61
2018-09-14 21:00:00 23.6 14 Noroeste 26 Norte 0 983.9 1.3 53
2018-09-14 20:00:00 26.6 17 Norte 28 Noroeste 0 983.1 0.3 45
2018-09-14 19:00:00 28.7 20 Noroeste 28 Noroeste 0 982.6 -0.8 37
2018-09-14 18:00:00 29.3 15 Oeste 27 Noroeste 0 982.6 -1.4 35
2018-09-14 17:00:00 28.7 14 Noroeste 28 Oeste 0 982.8 -1.9 34
2018-09-14 16:00:00 29.3 18 Noroeste 29 Noroeste 0 983.4 -1.8 33
2018-09-14 15:00:00 28.1 14 Oeste 26 Oeste 0 984 -1.6 36
2018-09-14 14:00:00 26.1 12 Noroeste 26 Noroeste 0 984.7 -0.9 44
2018-09-14 13:00:00 24.3 15 Oeste 26 Oeste 0 985.2 -0.3 51
2018-09-14 12:00:00 22.4 19 Noroeste 31 Oeste 0 985.6 0.2 58
2018-09-14 11:00:00 20.7 21 Noroeste 33 Noroeste 0 985.6 0.5 64
2018-09-14 10:00:00 19 15 Oeste 22 Oeste 0 985.5 0.8 71
2018-09-14 09:00:00 16.8 9 Oeste 21 Oeste 0 985.4 1 78
2018-09-14 08:00:00 15.9 9 Oeste 22 Oeste 0 985.1 0.5 81
2018-09-14 07:00:00 16.4 16 Oeste 24 Oeste 0 984.7 -0.3 79
2018-09-14 06:00:00 16.7 15 Noroeste 33 Oeste 0 984.4 -0.8 78
2018-09-14 05:00:00 17.1 23 Oeste 36 Noroeste 0 984.6 -0.8 75
2018-09-14 04:00:00 16.9 20 Oeste 30 Oeste 0 985 -0.4 76
2018-09-14 03:00:00 17.2 18 Oeste 28 Oeste 0 985.2 -0.1 75
2018-09-14 02:00:00 17.5 18 Oeste 31 Noroeste 0 985.4 0.3 75
2018-09-14 01:00:00 17.7 18 Oeste 25 Oeste 0 985.4 0.7 74
2018-09-14 00:00:00 17.9 16 Oeste 26 Noroeste 0 985.3 1.4 73
2018-09-13 23:00:00 18.6 17 Oeste 24 Noroeste 0 985.1 1.7 70
2018-09-13 22:00:00 19.5 17 Noroeste 21 Noroeste 0 984.7 1.2 66
2018-09-13 21:00:00 21.4 14 Noroeste 24 Noroeste 0 983.9 0.4 58
2018-09-13 20:00:00 24.3 17 Noroeste 32 Noroeste 0 983.4 -0.8 49
2018-09-13 19:00:00 25.9 27 Noroeste 41 Noroeste 0 983.5 -1 40
2018-09-13 18:00:00 26.3 30 Noroeste 43 Noroeste 0 983.5 -1.6 40
2018-09-13 17:00:00 26.1 27 Noroeste 44 Noroeste 0 984.2 -1.4 43
2018-09-13 16:00:00 26.6 26 Noroeste 44 Noroeste 0 984.5 -1.6 43
2018-09-13 15:00:00 26.1 23 Noroeste 41 Noroeste 0 985.1 -1.2 45
2018-09-13 14:00:00 25.4 26 Noroeste 41 Noroeste 0 985.6 -0.8 48
2018-09-13 13:00:00 24.8 27 Noroeste 42 Noroeste 0 986.1 -0.1 53
2018-09-13 12:00:00 23.3 29 Noroeste 41 Noroeste 0 986.3 0.2 57
2018-09-13 11:00:00 22 26 Noroeste 39 Noroeste 0 986.4 0.7 62
2018-09-13 10:00:00 20.6 25 Noroeste 36 Noroeste 0 986.2 0.7 66
2018-09-13 09:00:00 18.9 22 Noroeste 34 Noroeste 0 986.1 0.3 74
2018-09-13 08:00:00 17.7 23 Noroeste 30 Noroeste 0 985.7 -0.1 81
2018-09-13 07:00:00 17.8 18 Noroeste 25 Noroeste 0 985.5 -0.2 81
2018-09-13 06:00:00 17.7 16 Oeste 22 Oeste 0 985.8 -0.1 81
2018-09-13 05:00:00 18.4 16 Noroeste 35 Noroeste 0 985.8 -0.5 79
2018-09-13 04:00:00 19.4 21 Noroeste 42 Noroeste 0 985.7 -0.7 76
2018-09-13 03:00:00 19.3 21 Noroeste 29 Noroeste 0 985.9 -0.6 78
2018-09-13 02:00:00 19.7 13 Oeste 27 Oeste 0 986.3 -0.1 79
2018-09-13 01:00:00 20.2 14 Oeste 21 Noroeste 0 986.4 0.4 78
2018-09-13 00:00:00 20.6 15 Noroeste 19 Noroeste 0 986.5 1.5 80
2018-09-12 23:00:00 21.2 13 Oeste 19 Noroeste 0 986.4 1.4 72
2018-09-12 22:00:00 21.8 8 Norte 19 Norte 0 986 1 66
2018-09-12 21:00:00 23.8 11 Norte 19 Norte 0 985 -0.3 60
2018-09-12 20:00:00 26.5 8 Norte 15 Nordeste 0 985 -0.6 52
2018-09-12 19:00:00 27.4 4 Norte 11 Este 0 985 -1.3 43
2018-09-12 18:00:00 27.5 5 Nordeste 13 Nordeste 0 985.3 -1.9 44
2018-09-12 17:00:00 27.2 5 Este 18 Sudeste 0 985.6 -2.5 53
2018-09-12 16:00:00 25.5 7 Este 15 Este 0 986.3 -2.4 62
2018-09-12 15:00:00 23.3 5 Norte 8 Oeste 0 987.2 -1.5 74
2018-09-12 14:00:00 21.8 5 Sudoeste 11 Oeste 0 988.1 -0.2 79
2018-09-12 13:00:00 20.8 3 Sur 9 Sur 0 988.7 0.6 83
2018-09-12 12:00:00 19.6 6 Sur 10 Noroeste 0.2 988.7 0.8 87
2018-09-12 11:00:00 19.1 8 Noroeste 10 Noroeste 0.2 988.3 0.9 92
2018-09-12 10:00:00 18.6 5 Oeste 12 Noroeste 0.6 988.1 0.8 91
2018-09-12 09:00:00 18.6 7 Sudoeste 9 Sudoeste 1.2 987.9 1.3 91
2018-09-12 08:00:00 18.6 4 Sudeste 19 Sudeste 0 987.4 0 86
2018-09-12 07:00:00 18.7 9 Este 18 Sudeste 0 987.3 -0.1 82
2018-09-12 06:00:00 18.4 14 Sudeste 27 Este 0.2 986.6 -1.1 85
2018-09-12 05:00:00 18.9 14 Este 20 Este 0 987.4 -0.5 79
2018-09-12 04:00:00 19.2 14 Este 20 Este 0 987.4 -0.5 78
2018-09-12 03:00:00 19.5 12 Este 14 Este 0 987.7 -0.1 74
2018-09-12 02:00:00 20.3 13 Este 15 Este 0 987.9 0.2 70
2018-09-12 01:00:00 20.1 11 Este 14 Este 0 987.9 0.3 72
2018-09-12 00:00:00 20.4 5 Sudeste 11 Este 0 987.8 0.6 68
2018-09-11 23:00:00 22.2 10 Este 17 Este 0 987.7 0.6 57
2018-09-11 22:00:00 22.8 13 Este 15 Este 0 987.6 0.6 57
2018-09-11 21:00:00 24.5 5 Sudeste 10 Sur 0 987.2 -0.1 52
2018-09-11 20:00:00 25.8 8 Sur 17 Sur 0 987.1 -0.8 47
2018-09-11 19:00:00 26.4 13 Sur 22 Sur 0 987 -0.9 44
2018-09-11 18:00:00 27 15 Sur 24 Sur 0 987.3 -1.7 42
2018-09-11 17:00:00 27.9 19 Sur 32 Sur 0 987.9 -1.5 43
2018-09-11 16:00:00 28.2 12 Sur 28 Sur 0 987.9 -1.9 41
2018-09-11 15:00:00 26.9 16 Sur 23 Sur 0 989 -1.4 52
2018-09-11 14:00:00 26.3 9 Sudeste 18 Este 0 989.4 -1.1 53
2018-09-11 13:00:00 25.9 5 Sur 10 Sudoeste 0 989.8 -0.4 55
2018-09-11 12:00:00 23.2 4 Noroeste 9 Norte 0 990.4 0.4 63
2018-09-11 11:00:00 21.6 4 Norte 10 Noroeste 0 990.5 0.8 68
2018-09-11 10:00:00 19.3 0 Calma 5 Oeste 0 990.2 0.9 78
2018-09-11 09:00:00 16.8 2 Oeste 5 Sudeste 0 990 0.9 87
2018-09-11 08:00:00 15.2 5 Sudeste 6 Sudeste 0 989.7 0.5 89
2018-09-11 07:00:00 15.6 3 Noroeste 4 Oeste 0 989.3 0.2 89
2018-09-11 06:00:00 16.1 0 Calma 3 Sudoeste 0 989.1 -0.2 86
2018-09-11 05:00:00 16.4 0 Calma 5 Noroeste 0 989.2 -0.1 85
2018-09-11 04:00:00 17.1 2 Noroeste 7 Oeste 0 989.1 -0.2 84
2018-09-11 03:00:00 17.2 3 Noroeste 6 Oeste 0 989.3 0.2 85
2018-09-11 02:00:00 18 2 Oeste 9 Noroeste 0 989.3 0.3 82
2018-09-11 01:00:00 18.9 3 Noroeste 8 Oeste 0 989.3 0.7 79
2018-09-11 00:00:00 19.8 3 Oeste 13 Oeste 0 989.1 1.7 76
2018-09-10 23:00:00 21.2 6 Sudoeste 14 Noroeste 0 989 1.9 71
2018-09-10 22:00:00 22.1 11 Noroeste 14 Noroeste 0 988.6 1.5 69
2018-09-10 21:00:00 24.2 10 Noroeste 17 Noroeste 0 987.4 0.1 59
2018-09-10 20:00:00 27.4 9 Oeste 17 Oeste 0 987.1 -0.5 42
2018-09-10 19:00:00 28.3 10 Noroeste 19 Noroeste 0 987.1 -1.1 40
2018-09-10 18:00:00 28.4 6 Noroeste 21 Oeste 0 987.3 -1.5 40
2018-09-10 17:00:00 28.1 11 Oeste 26 Noroeste 0 987.6 -1.8 41
2018-09-10 16:00:00 27.5 9 Noroeste 23 Noroeste 0 988.2 -1.4 44
2018-09-10 15:00:00 26.6 8 Oeste 26 Noroeste 0 988.8 -0.9 45
2018-09-10 14:00:00 25.4 13 Noroeste 27 Oeste 0 989.4 0.1 50
2018-09-10 13:00:00 25 13 Noroeste 25 Noroeste 0 989.6 0.7 53
2018-09-10 12:00:00 23.5 13 Noroeste 28 Noroeste 0 989.7 1 61
2018-09-10 11:00:00 22 22 Noroeste 32 Noroeste 0 989.3 1.1 66
2018-09-10 10:00:00 20.6 22 Noroeste 29 Noroeste 0 988.9 1.1 73
2018-09-10 09:00:00 18.8 14 Noroeste 25 Oeste 0 988.7 1.2 79
2018-09-10 08:00:00 17.3 17 Noroeste 23 Noroeste 0 988.2 1 85
2018-09-10 07:00:00 17.6 11 Noroeste 22 Noroeste 0 987.8 0.7 83
2018-09-10 06:00:00 17.6 17 Noroeste 25 Noroeste 0 987.5 0.1 83
2018-09-10 05:00:00 17.8 14 Noroeste 22 Noroeste 0 987.2 -0.2 84
2018-09-10 04:00:00 18.1 17 Noroeste 28 Noroeste 0 987.1 -0.2 84
2018-09-10 03:00:00 18.4 17 Noroeste -- -- 0 987.4 0.5 83
2018-09-10 02:00:00 19.1 17 Noroeste -- -- 0 987.4 0.9 79
2018-09-10 01:00:00 19.5 -- -- -- -- 0 987.3 1.5 78
2018-09-10 00:00:00 20.2 20 Noroeste 38 Oeste 0 986.9 2.2 76
2018-09-09 23:00:00 20.5 20 Noroeste 32 Oeste 0 986.5 2.5 78
2018-09-09 22:00:00 21.6 22 Noroeste 29 Noroeste 0 985.8 1.6 75
2018-09-09 21:00:00 23.3 12 Noroeste 19 Noroeste 0 984.7 1 70
2018-09-09 20:00:00 25.3 9 Oeste 20 Noroeste 0 984 0.3 61
2018-09-09 19:00:00 24.9 15 Oeste 28 Oeste 0 984.2 -0.3 63
2018-09-09 18:00:00 25.7 23 Oeste 31 Oeste 0 983.7 -1.3 63
2018-09-09 17:00:00 26.6 13 Noroeste 23 Noroeste 0 983.7 -1.6 50
2018-09-09 16:00:00 26.8 5 Sudoeste 14 Oeste 0 984.5 -1.1 48
2018-09-09 15:00:00 25.4 7 Norte 12 Norte 0 985 -0.8 58
2018-09-09 14:00:00 24.3 3 Este 12 Este 0 985.3 -0.4 63
2018-09-09 13:00:00 24.7 7 Este 13 Sudeste 0 985.6 0.1 61
2018-09-09 12:00:00 23.5 4 Sur 12 Sudeste 0 985.8 0.3 66
2018-09-09 11:00:00 21.5 5 Este 12 Nordeste 0 985.7 0.3 76
2018-09-09 10:00:00 19.2 9 Nordeste 14 Nordeste 0 985.5 0.7 81
2018-09-09 09:00:00 18.7 3 Norte 9 Norte 0 985.5 0.9 88
2018-09-09 08:00:00 17.6 7 Oeste 10 Sudoeste 0 985.4 0.9 93
2018-09-09 07:00:00 17.7 7 Oeste 14 Sudoeste 0 984.8 0.4 92
2018-09-09 06:00:00 17.8 5 Oeste 12 Oeste 0 984.6 0.2 91
2018-09-09 05:00:00 18.4 3 Sudoeste 17 Nordeste 0 984.5 0.1 89
2018-09-09 04:00:00 18.6 16 Este 28 Sudeste 3.6 984.4 0.4 85
2018-09-09 03:00:00 18.4 12 Sur 24 Sudoeste 2.8 984.4 0.5 88
2018-09-09 02:00:00 18.5 15 Sudoeste 21 Sudoeste 0 984.4 -0.1 86
2018-09-09 01:00:00 19.2 10 Sudeste 34 Norte 0 984 0.1 79
2018-09-09 00:00:00 18.7 20 Norte 35 Norte 0 983.9 1.1 81
2018-09-08 23:00:00 18.5 17 Norte 34 Noroeste 3 984.5 3.4 89
2018-09-08 22:00:00 19.4 31 Oeste 55 Oeste 1.6 983.9 3 81
2018-09-08 21:00:00 22.1 25 Oeste 38 Oeste 0 982.8 2.1 65
2018-09-08 20:00:00 27.2 22 Este 31 Este 0 981.1 0.2 46
2018-09-08 19:00:00 28.8 18 Este 37 Este 0 980.9 -0.4 32
2018-09-08 18:00:00 29.5 27 Este 43 Este 0 980.7 -1.4 30
2018-09-08 17:00:00 29.5 30 Este 42 Este 0 980.9 -1.9 31
2018-09-08 16:00:00 29.3 28 Este 44 Sudeste 0 981.3 -1.9 34
2018-09-08 15:00:00 28.4 24 Este 42 Este 0 982.1 -1.4 43
2018-09-08 14:00:00 27.5 20 Este 33 Sudeste 0 982.8 -0.7 47
2018-09-08 13:00:00 25.8 19 Este 35 Este 0 983.2 -0.9 53
2018-09-08 12:00:00 24.1 22 Este 29 Este 0 983.5 0.2 58
2018-09-08 11:00:00 22.5 7 Sudoeste 13 Oeste 0 983.5 0.6 62
2018-09-08 10:00:00 19.8 7 Sur 13 Este 0 984.1 1.5 71
2018-09-08 09:00:00 16.7 5 Oeste 7 Oeste 0 983.3 0.8 80
2018-09-08 08:00:00 15.4 4 Nordeste 6 Nordeste 0 982.9 -0.2 83
2018-09-08 07:00:00 16.2 5 Norte 9 Noroeste 0 982.6 -0.6 80
2018-09-08 06:00:00 17 3 Sudeste 8 Nordeste 0 982.5 -0.6 80
2018-09-08 05:00:00 17.2 5 Sudoeste 6 Sudoeste 0 983.1 -0.1 78
2018-09-08 04:00:00 17.1 4 Este 6 Este 0 983.2 0.1 80
2018-09-08 03:00:00 16.8 4 Nordeste 11 Oeste 0 983.1 0.2 80
2018-09-08 02:00:00 17.4 5 Sudoeste 11 Noroeste 0 983.2 0.8 77
2018-09-08 01:00:00 18.3 3 Oeste 15 Oeste 0 983.1 1.1 74
2018-09-08 00:00:00 18.9 9 Oeste 15 Oeste 0 982.9 1.9 72
2018-09-07 23:00:00 19.9 5 Oeste 17 Noroeste 0 982.4 2.1 66
2018-09-07 22:00:00 21.2 14 Noroeste 22 Noroeste 0 982 1.8 60
2018-09-07 21:00:00 22.9 20 Oeste 28 Oeste 0 981 0.8 53
2018-09-07 20:00:00 24.9 20 Noroeste 27 Noroeste 0 980.3 -0.1 46
2018-09-07 19:00:00 26.1 22 Noroeste 33 Noroeste 0 980.2 -0.7 43
2018-09-07 18:00:00 27 17 Noroeste 32 Oeste 0 980.2 -1.2 39
2018-09-07 17:00:00 27.5 16 Noroeste 30 Noroeste 0 980.4 -1.5 37
2018-09-07 16:00:00 26.6 14 Oeste 27 Oeste 0 980.9 -1.8 39
2018-09-07 15:00:00 25.8 10 Oeste 38 Oeste 0 981.4 -1.6 41
2018-09-07 14:00:00 25.4 13 Oeste 25 Oeste 0 981.9 -1.2 44
2018-09-07 13:00:00 23.6 14 Noroeste 29 Oeste 0 982.7 0 49
2018-09-07 12:00:00 22.2 14 Noroeste 26 Noroeste 0 983 0.3 52
2018-09-07 11:00:00 20.6 19 Oeste 35 Noroeste 0 983.1 0.6 61
2018-09-07 10:00:00 19.2 23 Noroeste 32 Oeste 0 982.7 0.6 67
2018-09-07 09:00:00 17.1 17 Noroeste 25 Noroeste 0 982.7 0.7 74
2018-09-07 08:00:00 15.9 17 Oeste 26 Oeste 0 982.5 0.5 78
2018-09-07 07:00:00 16.3 21 Oeste 31 Noroeste 0 982.1 0.1 77
2018-09-07 06:00:00 16.7 22 Noroeste 33 Noroeste 0 982 -0.3 76
2018-09-07 05:00:00 17.2 25 Oeste 35 Noroeste 0 982 -0.5 74
2018-09-07 04:00:00 17.5 26 Noroeste 41 Oeste 0 982 -0.4 75
2018-09-07 03:00:00 17.6 26 Oeste 39 Oeste 0 982.3 0.1 74
2018-09-07 02:00:00 17.5 25 Oeste 36 Noroeste 0 982.5 0.4 76
2018-09-07 01:00:00 17.6 24 Noroeste 41 Noroeste 0 982.4 0.8 75
2018-09-07 00:00:00 18 27 Noroeste 37 Noroeste 0 982.2 1.3 73
2018-09-06 23:00:00 18.5 20 Noroeste 39 Noroeste 0 982.1 1.8 72
2018-09-06 22:00:00 19.6 26 Noroeste 36 Noroeste 0 981.6 1.8 64
2018-09-06 21:00:00 20.7 23 Noroeste 42 Noroeste 0 980.9 1.8 59
2018-09-06 20:00:00 22.5 30 Noroeste 43 Noroeste 0 980.3 1.2 52
2018-09-06 19:00:00 24.3 30 Noroeste 45 Noroeste 0 979.8 0.3 42
2018-09-06 18:00:00 25.7 29 Noroeste 43 Noroeste 0 979.1 -1 42
2018-09-06 17:00:00 26.1 28 Noroeste 44 Noroeste 0 979.1 -1.2 40
2018-09-06 16:00:00 25.4 24 Noroeste 39 Noroeste 0 979.5 -1.2 43
2018-09-06 15:00:00 25.5 22 Oeste 39 Noroeste 0 980.1 -0.8 45
2018-09-06 14:00:00 24.6 24 Noroeste 41 Noroeste 0 980.3 -0.8 48
2018-09-06 13:00:00 22.9 24 Noroeste 36 Noroeste 0 980.7 -0.1 57
2018-09-06 12:00:00 22.2 22 Noroeste 38 Noroeste 0 980.9 0.4 61
2018-09-06 11:00:00 20.2 21 Noroeste 30 Noroeste 0 981.1 0.9 71
2018-09-06 10:00:00 20 23 Noroeste 31 Noroeste 0 980.8 0.9 71
2018-09-06 09:00:00 18.2 17 Oeste 23 Oeste 0 980.5 0.7 80
2018-09-06 08:00:00 16.6 17 Noroeste 21 Noroeste 0 980.2 0.6 85
2018-09-06 07:00:00 16.5 15 Noroeste 19 Noroeste 0 979.9 0.3 85
2018-09-06 06:00:00 16.9 6 Noroeste 22 Oeste 0 979.8 0.1 84
2018-09-06 05:00:00 17.2 18 Noroeste 27 Oeste 0 979.6 -0.4 83
2018-09-06 04:00:00 17.4 19 Oeste 28 Noroeste 0 979.6 -0.6 84
2018-09-06 03:00:00 17.8 22 Noroeste 31 Noroeste 0 979.7 -0.7 85
2018-09-06 02:00:00 17.8 12 Noroeste 27 Noroeste 0 980 -0.5 87
2018-09-06 01:00:00 18.2 15 Noroeste 24 Noroeste 0 980.2 0.5 89
2018-09-06 00:00:00 18.3 7 Oeste 15 Oeste 0 980.4 0.9 90
2018-09-05 23:00:00 18.9 8 Sur 13 Noroeste 0 980.5 2.6 88
2018-09-05 22:00:00 19.4 7 Noroeste 15 Oeste 0 979.7 1.9 85
2018-09-05 21:00:00 20.2 12 Noroeste 24 Noroeste 0 979.5 1.9 86
2018-09-05 20:00:00 20.7 19 Noroeste 37 Noroeste 0.4 977.9 0.9 86
2018-09-05 19:00:00 20.1 26 Noroeste 61 Oeste 3.8 977.8 0 87
2018-09-05 18:00:00 21.4 37 Oeste 50 Oeste 0.8 977.6 -0.7 80
2018-09-05 17:00:00 29.1 10 Sudeste 19 Sudeste 0 977 -2.3 39
2018-09-05 16:00:00 27.8 5 Nordeste 20 Sudeste 0 977.8 -2.4 45
2018-09-05 15:00:00 27.8 8 Nordeste 20 Este 0 978.3 -2.3 47
2018-09-05 14:00:00 26.8 8 Sudeste 16 Sudeste 0 979.3 -1.7 49
2018-09-05 13:00:00 25.1 9 Sudeste 23 Este 0 980.2 -0.8 52
2018-09-05 12:00:00 24 7 Nordeste 15 Este 0 980.6 -0.2 55
2018-09-05 11:00:00 21.4 4 Este 8 Oeste 0 981 0.5 67
2018-09-05 10:00:00 20.1 4 Sudoeste 8 Sudoeste 0 981 0.9 73
2018-09-05 09:00:00 18.9 5 Sudoeste 9 Sudoeste 0 980.8 1.1 78
2018-09-05 08:00:00 18.2 2 Este 7 Nordeste 0 980.5 0.6 84
2018-09-05 07:00:00 18.2 4 Noroeste 8 Oeste 0 980.1 0.4 78
2018-09-05 06:00:00 18.3 5 Oeste 10 Noroeste 0 979.7 -0.1 80
2018-09-05 05:00:00 18.2 4 Noroeste 8 Sudoeste 0 979.9 0.4 80
2018-09-05 04:00:00 19.2 8 Sudoeste 9 Sudoeste 0 979.7 0.3 78
2018-09-05 03:00:00 19.9 6 Noroeste 15 Norte 0 979.8 1 73
2018-09-05 02:00:00 20 10 Nordeste 22 Norte 0 979.5 0.5 78
2018-09-05 01:00:00 21.2 11 Noroeste 32 Norte 0 979.4 1.3 72
2018-09-05 00:00:00 21.4 21 Noroeste 40 Noroeste 0 978.8 2.5 70
2018-09-04 23:00:00 22.5 31 Oeste 41 Oeste 0 979 2.5 66
2018-09-04 22:00:00 25 16 Noroeste 25 Noroeste 0 978.1 2 56
2018-09-04 21:00:00 26.5 3 Norte 30 Sur 0 976.3 0.6 37
2018-09-04 20:00:00 28.3 20 Sur 37 Sur 0 976.5 0.5 34
2018-09-04 19:00:00 29.4 19 Sudoeste 24 Sudoeste 0 976.1 -0.6 34
2018-09-04 18:00:00 31.3 8 Sudeste 21 Sudeste 0 975.7 -1.7 29
2018-09-04 17:00:00 31.1 10 Sudeste 23 Sudeste 0 976 -2 29
2018-09-04 16:00:00 31 5 Noroeste 18 Este 0 976.7 -1.8 29
2018-09-04 15:00:00 29 8 Oeste 15 Sudoeste 0 977.4 -1.5 33
2018-09-04 14:00:00 27.8 6 Sur 14 Sur 0 978 -1.2 37
2018-09-04 13:00:00 26.2 8 Sudoeste 14 Sur 0 978.5 -0.9 41
2018-09-04 12:00:00 24.2 6 Oeste 13 Oeste 0 978.9 -0.5 43
2018-09-04 11:00:00 22.2 6 Oeste 15 Noroeste 0 979.2 0.2 47
2018-09-04 10:00:00 19.8 9 Oeste 16 Oeste 0 979.4 0.8 54
2018-09-04 09:00:00 18.1 4 Norte 8 Oeste 0 979.4 0.4 60
2018-09-04 08:00:00 16.7 0 Calma 6 Nordeste 0 979 0.2 63
2018-09-04 07:00:00 16.9 5 Nordeste 24 Oeste 0 978.6 -0.3 60
2018-09-04 06:00:00 18.1 17 Oeste 24 Oeste 0 979 0.4 53
2018-09-04 05:00:00 18.7 14 Oeste 27 Noroeste 0 978.8 0.2 55
2018-09-04 04:00:00 19.5 19 Noroeste 35 Oeste 0 978.9 0.8 51
2018-09-04 03:00:00 19.6 26 Noroeste 39 Noroeste 0 978.6 0.6 51
2018-09-04 02:00:00 20 23 Oeste 45 Noroeste 0 978.6 0.9 49
2018-09-04 01:00:00 21.1 31 Oeste 49 Oeste 0 978.1 1.1 46
2018-09-04 00:00:00 21.7 21 Oeste 31 Oeste 0 978 2.1 55
2018-09-03 23:00:00 22.4 14 Oeste 23 Noroeste 0 977.7 2.2 57
2018-09-03 22:00:00 23.8 15 Noroeste 21 Noroeste 0 977 1.4 54
2018-09-03 21:00:00 26.7 15 Noroeste 27 Noroeste 0 975.9 0.4 40
2018-09-03 20:00:00 29.8 15 Noroeste 22 Noroeste 0 975.5 -0.9 31
2018-09-03 19:00:00 29.7 11 Noroeste 22 Norte 0 975.6 -1.5 38
2018-09-03 18:00:00 30.3 14 Noroeste 21 Noroeste 0 975.5 -2.3 39
2018-09-03 17:00:00 31 8 Noroeste 19 Oeste 0 976.4 -2.1 37
2018-09-03 16:00:00 29.1 9 Oeste 21 Noroeste 0 977.1 -1.5 44
2018-09-03 15:00:00 27.4 15 Oeste 21 Noroeste 0 977.8 -1.9 51
2018-09-03 14:00:00 27.6 9 Sur 21 Este 0 978.5 -0.9 49
2018-09-03 13:00:00 25.7 8 Sudeste 19 Sur 0 978.6 -1.1 57
2018-09-03 12:00:00 25.3 5 Sudoeste 17 Norte 0 979.7 0.6 57
2018-09-03 11:00:00 23.4 6 Norte 19 Sudoeste 0 979.4 0.3 52
2018-09-03 10:00:00 21.3 5 Oeste 9 Sur 0 979.7 0.6 50
2018-09-03 09:00:00 18 5 Noroeste 14 Nordeste 0 979.1 0.1 60
2018-09-03 08:00:00 16 8 Nordeste 12 Sudeste 0 979.1 0.1 65
2018-09-03 07:00:00 15.6 4 Noroeste 9 Noroeste 0 979.1 0.2 66
2018-09-03 06:00:00 16.1 5 Oeste 6 Noroeste 0 979 -0.2 63
2018-09-03 05:00:00 16.3 2 Oeste 7 Noroeste 0 979 -0.2 62
2018-09-03 04:00:00 16.9 3 Noroeste 14 Este 0 978.9 -0.2 65
2018-09-03 03:00:00 18.1 3 Este 8 Sudoeste 0 979.2 0 62
2018-09-03 02:00:00 19.5 7 Sur 10 Sur 0 979.2 0.3 55
2018-09-03 01:00:00 21.5 4 Oeste 15 Oeste 0 979.1 0.6 45
2018-09-03 00:00:00 22.7 9 Oeste 14 Oeste 0 979.2 1.2 41
2018-09-02 23:00:00 25.1 6 Noroeste 14 Norte 0 978.9 1.3 32
2018-09-02 22:00:00 26.7 9 Norte 13 Norte 0 978.5 0.8 29
2018-09-02 21:00:00 29.7 3 Oeste 21 Sudeste 0 978 0 22
2018-09-02 20:00:00 32.7 8 Oeste 18 Oeste 0 977.6 -1 21
2018-09-02 19:00:00 33.1 8 Noroeste 21 Noroeste 0 977.7 -1.8 20
2018-09-02 18:00:00 33.4 12 Noroeste 23 Noroeste 0 978 -2.4 18
2018-09-02 17:00:00 32.5 6 Norte 15 Nordeste 0 978.6 -2.7 24
2018-09-02 16:00:00 31.2 8 Este 15 Norte 0 979.5 -2.5 26
2018-09-02 15:00:00 29.6 4 Norte 16 Noroeste 0 980.4 -2.4 29
2018-09-02 14:00:00 28.1 6 Nordeste 13 Noroeste 0 981.3 -2 38
2018-09-02 13:00:00 26.2 8 Noroeste 14 Noroeste 0 982 -1.5 53
2018-09-02 12:00:00 24.2 5 Este 12 Nordeste 0 982.8 -0.5 60
2018-09-02 11:00:00 21.3 2 Noroeste 6 Noroeste 0 983.3 0.2 55
2018-09-02 10:00:00 18.4 4 Oeste 8 Sudoeste 0 983.5 0.5 63
2018-09-02 09:00:00 16.1 2 Oeste 6 Sur 0 983.3 0.2 73
2018-09-02 08:00:00 14.6 4 Norte 5 Norte 0 983.1 0 78
2018-09-02 07:00:00 14.9 4 Oeste 5 Oeste 0 983 -0.3 75
2018-09-02 06:00:00 15.9 3 Noroeste 6 Noroeste 0 983.1 -0.3 72
2018-09-02 05:00:00 16.3 0 Calma 9 Noroeste 0 983.1 -0.3 70
2018-09-02 04:00:00 17.1 8 Noroeste 14 Noroeste 0 983.3 0.1 72
2018-09-02 03:00:00 18 4 Noroeste 16 Noroeste 0 983.4 0.3 70
2018-09-02 02:00:00 18.9 9 Oeste 16 Oeste 0 983.4 0.7 69
2018-09-02 01:00:00 20.1 11 Oeste 16 Oeste 0 983.2 0.9 64
2018-09-02 00:00:00 21 10 Noroeste 19 Noroeste 0 983.1 1.3 59
2018-09-01 23:00:00 22.2 19 Noroeste 24 Noroeste 0 982.7 1.3 53
2018-09-01 22:00:00 23.4 16 Noroeste 21 Noroeste 0 982.3 1.1 47
2018-09-01 21:00:00 26 17 Noroeste 28 Noroeste 0 981.8 0.5 35
2018-09-01 20:00:00 29.3 22 Noroeste 31 Noroeste 0 981.4 -0.3 23
2018-09-01 19:00:00 30.7 24 Noroeste 39 Noroeste 0 981.2 -1.4 23
2018-09-01 18:00:00 31 30 Noroeste 40 Noroeste 0 981.3 -2 25
2018-09-01 17:00:00 31.5 26 Noroeste 35 Oeste 0 981.7 -2.3 24
2018-09-01 16:00:00 31.2 22 Noroeste 34 Oeste 0 982.6 -2.1 27
2018-09-01 15:00:00 29.9 18 Oeste 37 Noroeste 0 983.3 -2.1 31
2018-09-01 14:00:00 28.4 17 Noroeste 33 Noroeste 0 984 -1.7 36
2018-09-01 13:00:00 26.2 18 Noroeste 29 Noroeste 0 984.7 -0.9 42
2018-09-01 12:00:00 24.1 17 Noroeste 26 Noroeste 0 985.4 -0.1 50
2018-09-01 11:00:00 22 17 Noroeste 25 Oeste 0 985.7 0.4 58
2018-09-01 10:00:00 20.1 18 Noroeste 28 Noroeste 0 985.6 0.6 66
2018-09-01 09:00:00 18.6 15 Noroeste 24 Noroeste 0 985.5 0.5 72
2018-09-01 08:00:00 17.1 10 Noroeste 21 Noroeste 0 985.3 0.1 78
2018-09-01 07:00:00 17.6 12 Noroeste 32 Noroeste 0 985 0 76
2018-09-01 06:00:00 18 19 Noroeste 28 Noroeste 0 985 -0.3 75
2018-09-01 05:00:00 18.4 21 Oeste 39 Noroeste 0 985.2 -0.1 73
2018-09-01 04:00:00 18.7 28 Noroeste 37 Noroeste 0 985 -0.4 73
2018-09-01 03:00:00 18.9 19 Noroeste 33 Noroeste 0 985.3 -0.1 72
2018-09-01 02:00:00 19.3 28 Noroeste 44 Noroeste 0 985.3 0.5 71
2018-09-01 01:00:00 19.7 28 Noroeste 42 Noroeste 0 985.4 0.6 68
2018-09-01 00:00:00 20.4 30 Noroeste 40 Noroeste 0 985.4 1.6 67
2018-08-31 23:00:00 20.9 30 Noroeste 39 Noroeste 0 984.8 1.7 64
2018-08-31 22:00:00 21.4 22 Noroeste 36 Noroeste 0 984.8 1.9 62
2018-08-31 21:00:00 22.7 24 Noroeste 42 Noroeste 0 983.8 1 54
2018-08-31 20:00:00 24.9 33 Noroeste 49 Noroeste 0 983.1 0 47
2018-08-31 19:00:00 26.6 32 Noroeste 54 Noroeste 0 982.9 -0.8 41
2018-08-31 18:00:00 27.2 37 Noroeste 52 Noroeste 0 982.8 -1.1 38
2018-08-31 17:00:00 27.8 33 Noroeste 47 Noroeste 0 983.1 -1.1 37
2018-08-31 16:00:00 27.7 35 Noroeste 48 Noroeste 0 983.7 -1 35
2018-08-31 15:00:00 27.6 30 Noroeste 49 Noroeste 0 983.9 -1.2 33
2018-08-31 14:00:00 26.8 33 Noroeste 47 Oeste 0 984.2 -1.1 35
2018-08-31 13:00:00 25.2 28 Noroeste 39 Noroeste 0 984.7 -0.5 42
2018-08-31 12:00:00 23.6 27 Noroeste 39 Oeste 0 985.1 0 48
2018-08-31 11:00:00 21.9 25 Noroeste 39 Oeste 0 985.3 0.3 56
2018-08-31 10:00:00 20 22 Noroeste 39 Noroeste 0 985.2 0.4 62
2018-08-31 09:00:00 18.4 18 Oeste 31 Noroeste 0 985.1 0.4 67
2018-08-31 08:00:00 17.1 22 Noroeste 31 Oeste 0 985 0.1 71
2018-08-31 07:00:00 17.1 19 Oeste 30 Oeste 0 984.8 -0.2 71
2018-08-31 06:00:00 17.1 21 Oeste 32 Oeste 0 984.7 -0.6 73
2018-08-31 05:00:00 17.3 21 Oeste 30 Noroeste 0 984.9 -0.4 73
2018-08-31 04:00:00 17.6 20 Oeste 29 Noroeste 0 985 -0.6 73
2018-08-31 03:00:00 17.7 15 Noroeste 26 Noroeste 0 985.3 -0.1 74
2018-08-31 02:00:00 18.2 17 Noroeste 32 Noroeste 0 985.3 0.1 74
2018-08-31 01:00:00 19 15 Oeste 27 Oeste 0 985.6 0.8 70
2018-08-31 00:00:00 19.7 21 Oeste 30 Oeste 0 985.4 1.4 68
2018-08-30 23:00:00 20.6 20 Oeste 30 Noroeste 0 985.2 2.3 64
2018-08-30 22:00:00 22.4 18 Noroeste 31 Noroeste 0 984.8 2.1 56
2018-08-30 21:00:00 24.4 22 Noroeste 36 Noroeste 0 984 1.7 49
2018-08-30 20:00:00 27.1 27 Noroeste 39 Noroeste 0 982.9 0.2 41
2018-08-30 19:00:00 28.7 27 Noroeste 34 Noroeste 0 982.7 -0.9 36
2018-08-30 18:00:00 30 19 Noroeste 28 Noroeste 0 982.3 -1.9 31
2018-08-30 17:00:00 30 13 Oeste 24 Oeste 0 982.7 -2 32
2018-08-30 16:00:00 29.2 12 Oeste 21 Noroeste 0 983.6 -1.9 34
2018-08-30 15:00:00 28.1 7 Oeste 25 Oeste 0 984.2 -1.8 38
2018-08-30 14:00:00 26.4 9 Oeste 22 Oeste 0 984.7 -1.6 43
2018-08-30 13:00:00 24.6 12 Oeste 29 Oeste 0 985.5 -0.8 48
2018-08-30 12:00:00 23.7 15 Noroeste 27 Noroeste 0 986 -0.1 52
2018-08-30 11:00:00 21.9 15 Noroeste 24 Noroeste 0 986.3 0.6 58
2018-08-30 10:00:00 19.9 15 Noroeste 26 Noroeste 0 986.3 0.5 66
2018-08-30 09:00:00 18 18 Noroeste 25 Noroeste 0 986.1 0.3 72
2018-08-30 08:00:00 16.9 19 Oeste 30 Noroeste 0 985.7 -0.1 77
2018-08-30 07:00:00 17.5 17 Noroeste 27 Noroeste 0 985.8 -0.3 73
2018-08-30 06:00:00 17.8 21 Noroeste 33 Noroeste 0 985.8 -0.5 73
2018-08-30 05:00:00 18.1 25 Noroeste 36 Noroeste 0 985.8 -0.3 73
2018-08-30 04:00:00 18.3 26 Noroeste 39 Noroeste 0 986.1 -0.1 73
2018-08-30 03:00:00 18.6 24 Noroeste 42 Noroeste 0 986.3 0.3 71
2018-08-30 02:00:00 18.9 32 Noroeste 43 Noroeste 0 986.1 0.2 71
2018-08-30 01:00:00 19.2 30 Noroeste 45 Noroeste 0 986.2 1 72
2018-08-30 00:00:00 19.7 31 Oeste 45 Oeste 0 986 1.8 72
2018-08-29 23:00:00 20.1 28 Oeste 44 Noroeste 0 985.9 2.9 71
2018-08-29 22:00:00 20.9 28 Noroeste 49 Noroeste 0 985.2 2.4 70
2018-08-29 21:00:00 23.3 30 Noroeste 45 Noroeste 0 984.2 1.8 62
2018-08-29 20:00:00 26.3 31 Noroeste 46 Noroeste 0 983 0.7 48
2018-08-29 19:00:00 28.4 32 Noroeste 47 Noroeste 0 982.8 0.2 36
2018-08-29 18:00:00 28.9 37 Noroeste 55 Noroeste 0 982.4 -0.4 38
2018-08-29 17:00:00 29.9 34 Noroeste 49 Noroeste 0 982.3 -0.8 35
2018-08-29 16:00:00 30.2 26 Noroeste 37 Noroeste 0 982.6 -0.9 34
2018-08-29 15:00:00 29.3 26 Noroeste 40 Noroeste 0 982.8 -0.8 35
2018-08-29 14:00:00 28.1 26 Noroeste 44 Noroeste 0 983.1 -0.4 40
2018-08-29 13:00:00 27.6 25 Noroeste 41 Noroeste 0 983.5 0.3 43
2018-08-29 12:00:00 26.1 27 Oeste 37 Oeste 0 983.6 0.7 48
2018-08-29 11:00:00 24.6 24 Noroeste 33 Noroeste 0 983.5 1.3 51
2018-08-29 10:00:00 22.8 16 Noroeste 24 Noroeste 0 983.2 1.6 61
2018-08-29 09:00:00 20.3 9 Noroeste 14 Noroeste 0 982.9 1.7 69
2018-08-29 08:00:00 18.5 13 Noroeste 17 Noroeste 0 982.2 1 73
2018-08-29 07:00:00 17.9 5 Oeste 8 Oeste 0 981.6 0.4 71
2018-08-29 06:00:00 18.3 3 Noroeste 5 Este 0 981.2 0.2 69
2018-08-29 05:00:00 19.1 3 Sur 12 Oeste 0 981.2 0 67
2018-08-29 04:00:00 20.3 8 Oeste 11 Oeste 0 981.2 0.6 66
2018-08-29 03:00:00 21.6 3 Nordeste 12 Este 0 981 1.2 62
2018-08-29 02:00:00 22.4 8 Norte 14 Sudeste 0 981.2 2.3 60
2018-08-29 01:00:00 22.8 8 Sudeste 18 Nordeste 0 980.6 2.4 60
2018-08-29 00:00:00 23.4 13 Nordeste 23 Este 0 979.8 3.2 56
2018-08-28 23:00:00 23.6 21 Este 58 Este 0 978.9 2.6 62
2018-08-28 22:00:00 26.4 39 Este 58 Este 0 978.2 2.7 53
2018-08-28 21:00:00 28.2 25 Este 46 Sudeste 0 976.6 0.8 56
2018-08-28 20:00:00 29.7 38 Sudeste 54 Sudeste 0 976.3 -0.6 57
2018-08-28 19:00:00 32.3 35 Este 56 Este 0 975.5 -2.6 39
2018-08-28 18:00:00 33.4 37 Este 48 Este 0 975.8 -3.3 38
2018-08-28 17:00:00 33.9 33 Este 46 Este 0 976.9 -2.6 34
2018-08-28 16:00:00 32.6 31 Este 42 Sudeste 0 978.1 -2 36
2018-08-28 15:00:00 32.1 27 Este 47 Sudeste 0 979.1 -2.1 38
2018-08-28 14:00:00 30.6 33 Este 50 Este 0 979.5 -1.6 45
2018-08-28 13:00:00 29.2 32 Este 42 Este 0 980.1 -1.2 51
2018-08-28 12:00:00 28.1 23 Este 32 Este 0 981.2 -0.4 54
2018-08-28 11:00:00 26.4 22 Este 34 Sudeste 0 981.1 -0.3 61
2018-08-28 10:00:00 24.7 19 Sudeste 26 Este 0 981.3 0.6 69
2018-08-28 09:00:00 22.4 9 Este 22 Este 0 981.6 1.3 76
2018-08-28 08:00:00 21.7 16 Este 24 Sudeste 0 981.4 0.7 80
2018-08-28 07:00:00 21.6 15 Sudeste 34 Este 0 980.7 0.2 80
2018-08-28 06:00:00 21.9 27 Este 34 Este 0 980.3 -0.4 79
2018-08-28 05:00:00 22.8 18 Sudeste 27 Sudeste 0 980.7 0 73
2018-08-28 04:00:00 22.6 15 Este 26 Este 0 980.5 -0.1 63
2018-08-28 03:00:00 22.7 17 Este 27 Este 0 980.7 0.5 58
2018-08-28 02:00:00 23.7 15 Este 27 Este 0 980.7 0.5 52
2018-08-28 01:00:00 23.7 21 Este 28 Este 0 980.6 0.5 50
2018-08-28 00:00:00 24.3 5 Nordeste 15 Este 0 980.2 0.7 42
2018-08-27 23:00:00 25.6 8 Este 12 Sudeste 0 980.2 1 37
2018-08-27 22:00:00 27.8 4 Oeste 8 Sudeste 0 980.1 1 32
2018-08-27 21:00:00 30.3 7 Este 12 Este 0 979.5 0.4 27
2018-08-27 20:00:00 32.8 11 Este 16 Este 0 979.2 -0.2 23
2018-08-27 19:00:00 33.6 12 Este 21 Este 0 979.1 -1.1 22
2018-08-27 18:00:00 33.7 11 Este 22 Sudeste 0 979.1 -1.7 22
2018-08-27 17:00:00 33.7 12 Este 21 Este 0 979.4 -2 24
2018-08-27 16:00:00 33 9 Sudeste 18 Sudeste 0 980.2 -1.6 26
2018-08-27 15:00:00 32.2 3 Sudoeste 17 Sudeste 0 980.8 -1.5 27
2018-08-27 14:00:00 30.1 9 Sudoeste 14 Sudoeste 0 981.4 -0.9 30
2018-08-27 13:00:00 28.4 3 Oeste 12 Oeste 0 981.8 -0.4 33
2018-08-27 12:00:00 26.2 4 Sudeste 19 Oeste 0 982.3 0.1 41
2018-08-27 11:00:00 23.8 5 Norte 8 Norte 0 982.3 0.5 51
2018-08-27 10:00:00 21.4 3 Noroeste 7 Oeste 0 982.2 0.8 62
2018-08-27 09:00:00 18.2 3 Oeste 4 Oeste 0 982.2 1.2 75
2018-08-27 08:00:00 16.1 2 Sur 5 Este 0 981.8 0.8 76
2018-08-27 07:00:00 16.3 2 Noroeste 8 Oeste 0 981.4 0.3 71
2018-08-27 06:00:00 16.8 3 Sudoeste 7 Noroeste 0 981 -0.1 75
2018-08-27 05:00:00 17.1 7 Sudoeste 9 Oeste 0 981 -0.1 71
2018-08-27 04:00:00 17.8 5 Oeste 8 Oeste 0 981.1 0.1 66
2018-08-27 03:00:00 18.7 2 Este 6 Norte 0 981.1 0.5 64
2018-08-27 02:00:00 19.7 4 Noroeste 6 Oeste 0 981.1 1.1 58
2018-08-27 01:00:00 20.8 5 Noroeste 12 Noroeste 0 981 1.4 57
2018-08-27 00:00:00 22.5 4 Noroeste 18 Norte 0 980.6 1.8 52
2018-08-26 23:00:00 24.1 13 Norte 20 Norte 0 980 1.5 49
2018-08-26 22:00:00 25 9 Norte 17 Norte 0 979.6 1.1 39
2018-08-26 21:00:00 27.4 9 Oeste 13 Noroeste 0 978.8 0 32
2018-08-26 20:00:00 29.9 7 Noroeste 20 Noroeste 0 978.5 -0.6 28
2018-08-26 19:00:00 30 9 Noroeste 22 Noroeste 0 978.5 -1.4 28
2018-08-26 18:00:00 30 11 Noroeste 22 Noroeste 0 978.8 -1.8 27
2018-08-26 17:00:00 29.5 9 Norte 22 Noroeste 0 979.1 -2.2 29
2018-08-26 16:00:00 28.6 10 Noroeste 19 Noroeste 0 979.9 -1.9 30
2018-08-26 15:00:00 26.9 9 Oeste 19 Oeste 0 980.6 -1.8 33
2018-08-26 14:00:00 25.8 5 Sur 16 Norte 0 981.3 -1.5 35
2018-08-26 13:00:00 23.8 8 Norte 14 Noroeste 0 981.8 -1 39
2018-08-26 12:00:00 22.1 6 Norte 20 Noroeste 0 982.4 -0.5 46
2018-08-26 11:00:00 20.1 10 Noroeste 19 Noroeste 0 982.8 0.1 54
2018-08-26 10:00:00 18.1 12 Noroeste 21 Noroeste 0 982.8 0.7 63
2018-08-26 09:00:00 16.4 8 Noroeste 14 Oeste 0 982.9 1 69
2018-08-26 08:00:00 13.9 10 Sudoeste 21 Sudoeste 0 982.7 0.6 78
2018-08-26 07:00:00 14.7 7 Oeste 30 Oeste 0 982.1 -0.3 73
2018-08-26 06:00:00 15.1 18 Noroeste 33 Noroeste 0 981.9 -1 72
2018-08-26 05:00:00 15.4 16 Oeste 29 Oeste 0 982.1 -1.1 70
2018-08-26 04:00:00 15.8 21 Oeste 40 Oeste 0 982.4 -1 68
2018-08-26 03:00:00 15.9 24 Oeste 32 Oeste 0 982.9 -0.4 68
2018-08-26 02:00:00 16.1 18 Oeste 30 Noroeste 0 983.2 0.1 66
2018-08-26 01:00:00 16.5 17 Noroeste 47 Noroeste 0 983.4 0.7 67
2018-08-26 00:00:00 17.6 33 Noroeste 47 Noroeste 0 983.3 1.4 62
2018-08-25 23:00:00 18 27 Noroeste 40 Noroeste 0 983.1 2 59
2018-08-25 22:00:00 18.6 28 Noroeste 44 Noroeste 0 982.7 1.6 54
2018-08-25 21:00:00 19.6 31 Noroeste 47 Noroeste 0 981.9 1.1 50
2018-08-25 20:00:00 21.6 32 Noroeste 48 Noroeste 0 981.1 0 41
2018-08-25 19:00:00 22.6 35 Noroeste 47 Noroeste 0 981.1 -0.4 41
2018-08-25 18:00:00 24.1 37 Noroeste 53 Noroeste 0 980.8 -1.3 34
2018-08-25 17:00:00 24.3 33 Noroeste 55 Noroeste 0 981.1 -1.3 37
2018-08-25 16:00:00 24.5 35 Noroeste 59 Noroeste 0 981.5 -1.4 35
2018-08-25 15:00:00 23.3 31 Noroeste 54 Noroeste 0 982.1 -1.3 37
2018-08-25 14:00:00 23.5 33 Noroeste 55 Noroeste 0 982.4 -1.2 41
2018-08-25 13:00:00 23 32 Noroeste 50 Noroeste 0 982.9 -0.5 43
2018-08-25 12:00:00 21.7 35 Noroeste 54 Noroeste 0 983.4 -0.1 49
2018-08-25 11:00:00 20.1 33 Noroeste 48 Noroeste 0 983.6 0.1 55
2018-08-25 10:00:00 18.3 33 Noroeste 46 Noroeste 0 983.4 -0.1 64
2018-08-25 09:00:00 17.2 24 Oeste 34 Noroeste 0 983.5 0.1 68
2018-08-25 08:00:00 15.7 18 Noroeste 25 Oeste 0 983.5 0 72
2018-08-25 07:00:00 14.5 14 Oeste 24 Noroeste 0 983.5 -0.2 76
2018-08-25 06:00:00 15.4 17 Noroeste 30 Noroeste 0 983.4 -0.5 74
2018-08-25 05:00:00 16 22 Noroeste 35 Noroeste 0 983.5 -1 74
2018-08-25 04:00:00 16.2 24 Noroeste 34 Oeste 0 983.7 -0.9 74
2018-08-25 03:00:00 16.3 23 Oeste 30 Oeste 0 983.9 -0.8 74
2018-08-25 02:00:00 17 17 Oeste 26 Noroeste 0 984.5 -0.2 71
2018-08-25 01:00:00 17.6 17 Oeste 32 Noroeste 0 984.6 0.1 68
2018-08-25 00:00:00 18.4 21 Noroeste 32 Noroeste 0 984.7 0.8 65
2018-08-24 23:00:00 19 21 Noroeste 32 Noroeste 0 984.7 1.1 63
2018-08-24 22:00:00 19.5 18 Noroeste 35 Noroeste 0 984.5 1.1 60
2018-08-24 21:00:00 21.1 26 Noroeste 38 Noroeste 0 983.9 0.8 52
2018-08-24 20:00:00 22.6 26 Noroeste 44 Noroeste 0 983.6 0.3 45
2018-08-24 19:00:00 24.2 31 Norte 48 Noroeste 0 983.4 -0.2 45
2018-08-24 18:00:00 25.9 34 Noroeste 51 Noroeste 0 983.1 -0.9 41
2018-08-24 17:00:00 26.4 35 Noroeste 48 Noroeste 0 983.3 -1.1 43
2018-08-24 16:00:00 27.2 31 Noroeste 52 Noroeste 0 983.6 -1.2 43
2018-08-24 15:00:00 26.6 30 Noroeste 44 Noroeste 0 984 -1.2 44
2018-08-24 14:00:00 26.4 29 Noroeste 43 Noroeste 0.4 984.4 -1.2 46
2018-08-24 13:00:00 24.5 25 Noroeste 42 Noroeste 0 984.8 -0.5 51
2018-08-24 12:00:00 23.9 24 Noroeste 36 Noroeste 0 985.2 0 54
2018-08-24 11:00:00 23.2 20 Noroeste 37 Noroeste 0 985.6 0.6 57
2018-08-24 10:00:00 21.8 23 Noroeste 30 Noroeste 0 985.3 0.7 60
2018-08-24 09:00:00 19 20 Noroeste 25 Oeste 0 985.2 0.5 72
2018-08-24 08:00:00 17.1 17 Noroeste 23 Oeste 0 985 0.2 76
2018-08-24 07:00:00 17.2 15 Oeste 19 Noroeste 0 984.6 0 77
2018-08-24 06:00:00 18 13 Oeste 24 Noroeste 0 984.7 0.2 77
2018-08-24 05:00:00 18.3 13 Oeste 27 Oeste 0 984.8 0.1 77
2018-08-24 04:00:00 19 17 Oeste 29 Noroeste 0 984.6 -0.3 74
2018-08-24 03:00:00 19.9 24 Noroeste 41 Noroeste 0 984.5 0 72
2018-08-24 02:00:00 20.8 30 Noroeste 45 Noroeste 0 984.7 0.3 68
2018-08-24 01:00:00 20.8 20 Noroeste 34 Noroeste 0 984.9 1 69
2018-08-24 00:00:00 21.5 25 Noroeste 37 Noroeste 0 984.5 1.7 66